sensor_id;sensor_type;location;lat;lon;timestamp;P1;durP1;ratioP1;P2;durP2;ratioP2
10100;SDS011;5090;51.258;4.436;2022-08-25T00:00:31;8.77;;;4.70;;
10100;SDS011;5090;51.258;4.436;2022-08-25T00:03:00;6.15;;;4.20;;
10100;SDS011;5090;51.258;4.436;2022-08-25T00:05:28;6.68;;;4.57;;
10100;SDS011;5090;51.258;4.436;2022-08-25T00:07:56;5.18;;;4.30;;
10100;SDS011;5090;51.258;4.436;2022-08-25T00:10:24;7.07;;;4.30;;
10100;SDS011;5090;51.258;4.436;2022-08-25T00:12:52;5.60;;;4.65;;
10100;SDS011;5090;51.258;4.436;2022-08-25T00:15:20;5.47;;;4.40;;
10100;SDS011;5090;51.258;4.436;2022-08-25T00:17:49;7.15;;;4.50;;
10100;SDS011;5090;51.258;4.436;2022-08-25T00:20:17;4.95;;;4.47;;
10100;SDS011;5090;51.258;4.436;2022-08-25T00:22:45;6.40;;;4.87;;
10100;SDS011;5090;51.258;4.436;2022-08-25T00:25:13;8.25;;;4.75;;
10100;SDS011;5090;51.258;4.436;2022-08-25T00:27:42;7.18;;;4.30;;
10100;SDS011;5090;51.258;4.436;2022-08-25T00:30:10;5.62;;;4.50;;
10100;SDS011;5090;51.258;4.436;2022-08-25T00:32:38;5.18;;;4.47;;
10100;SDS011;5090;51.258;4.436;2022-08-25T00:35:06;5.50;;;4.57;;
10100;SDS011;5090;51.258;4.436;2022-08-25T00:37:35;5.97;;;4.95;;
10100;SDS011;5090;51.258;4.436;2022-08-25T00:40:03;4.95;;;4.45;;
10100;SDS011;5090;51.258;4.436;2022-08-25T00:42:31;5.22;;;4.53;;
10100;SDS011;5090;51.258;4.436;2022-08-25T00:44:59;5.20;;;4.45;;
10100;SDS011;5090;51.258;4.436;2022-08-25T00:47:27;5.55;;;5.05;;
10100;SDS011;5090;51.258;4.436;2022-08-25T00:49:57;5.62;;;4.97;;
10100;SDS011;5090;51.258;4.436;2022-08-25T00:52:26;8.88;;;5.57;;
10100;SDS011;5090;51.258;4.436;2022-08-25T00:54:55;7.60;;;5.12;;
10100;SDS011;5090;51.258;4.436;2022-08-25T00:57:22;7.60;;;5.25;;
10100;SDS011;5090;51.258;4.436;2022-08-25T00:59:49;6.62;;;5.30;;
10100;SDS011;5090;51.258;4.436;2022-08-25T01:02:17;5.95;;;5.35;;
10100;SDS011;5090;51.258;4.436;2022-08-25T01:04:46;7.47;;;5.43;;
10100;SDS011;5090;51.258;4.436;2022-08-25T01:07:14;6.82;;;5.25;;
10100;SDS011;5090;51.258;4.436;2022-08-25T01:09:43;11.35;;;5.80;;
10100;SDS011;5090;51.258;4.436;2022-08-25T01:12:10;12.52;;;6.62;;
10100;SDS011;5090;51.258;4.436;2022-08-25T01:14:39;7.10;;;6.25;;
10100;SDS011;5090;51.258;4.436;2022-08-25T01:17:07;10.07;;;5.97;;
10100;SDS011;5090;51.258;4.436;2022-08-25T01:19:35;8.60;;;6.10;;
10100;SDS011;5090;51.258;4.436;2022-08-25T01:22:04;7.03;;;6.32;;
10100;SDS011;5090;51.258;4.436;2022-08-25T01:24:35;10.63;;;5.30;;
10100;SDS011;5090;51.258;4.436;2022-08-25T01:27:01;8.25;;;5.62;;
10100;SDS011;5090;51.258;4.436;2022-08-25T01:29:30;7.62;;;6.37;;
10100;SDS011;5090;51.258;4.436;2022-08-25T01:31:59;7.87;;;6.07;;
10100;SDS011;5090;51.258;4.436;2022-08-25T01:34:27;6.87;;;6.10;;
10100;SDS011;5090;51.258;4.436;2022-08-25T01:36:55;6.30;;;5.70;;
10100;SDS011;5090;51.258;4.436;2022-08-25T01:39:23;8.70;;;6.70;;
10100;SDS011;5090;51.258;4.436;2022-08-25T01:41:58;10.38;;;6.72;;
10100;SDS011;5090;51.258;4.436;2022-08-25T01:44:21;9.88;;;6.30;;
10100;SDS011;5090;51.258;4.436;2022-08-25T01:46:50;7.57;;;6.70;;
10100;SDS011;5090;51.258;4.436;2022-08-25T01:49:18;8.48;;;7.07;;
10100;SDS011;5090;51.258;4.436;2022-08-25T01:51:48;7.50;;;6.43;;
10100;SDS011;5090;51.258;4.436;2022-08-25T01:54:14;10.68;;;6.70;;
10100;SDS011;5090;51.258;4.436;2022-08-25T01:56:43;7.05;;;6.35;;
10100;SDS011;5090;51.258;4.436;2022-08-25T01:59:13;8.20;;;7.15;;
10100;SDS011;5090;51.258;4.436;2022-08-25T02:01:39;8.10;;;6.85;;
10100;SDS011;5090;51.258;4.436;2022-08-25T02:04:07;7.87;;;7.07;;
10100;SDS011;5090;51.258;4.436;2022-08-25T02:06:35;8.85;;;7.43;;
10100;SDS011;5090;51.258;4.436;2022-08-25T02:09:05;11.55;;;7.05;;
10100;SDS011;5090;51.258;4.436;2022-08-25T02:11:32;10.25;;;7.00;;
10100;SDS011;5090;51.258;4.436;2022-08-25T02:14:00;8.32;;;7.50;;
10100;SDS011;5090;51.258;4.436;2022-08-25T02:16:31;8.07;;;7.28;;
10100;SDS011;5090;51.258;4.436;2022-08-25T02:18:56;9.65;;;7.25;;
10100;SDS011;5090;51.258;4.436;2022-08-25T02:21:25;10.93;;;7.80;;
10100;SDS011;5090;51.258;4.436;2022-08-25T02:23:53;8.95;;;8.05;;
10100;SDS011;5090;51.258;4.436;2022-08-25T02:26:21;9.27;;;7.78;;
10100;SDS011;5090;51.258;4.436;2022-08-25T02:28:50;10.38;;;8.02;;
10100;SDS011;5090;51.258;4.436;2022-08-25T02:31:18;11.75;;;7.87;;
10100;SDS011;5090;51.258;4.436;2022-08-25T02:33:46;10.68;;;7.50;;
10100;SDS011;5090;51.258;4.436;2022-08-25T02:36:14;12.85;;;8.20;;
10100;SDS011;5090;51.258;4.436;2022-08-25T02:38:42;8.70;;;7.80;;
10100;SDS011;5090;51.258;4.436;2022-08-25T02:41:12;12.10;;;7.97;;
10100;SDS011;5090;51.258;4.436;2022-08-25T02:43:39;14.32;;;8.55;;
10100;SDS011;5090;51.258;4.436;2022-08-25T02:46:07;10.32;;;8.73;;
10100;SDS011;5090;51.258;4.436;2022-08-25T02:48:35;11.05;;;8.85;;
10100;SDS011;5090;51.258;4.436;2022-08-25T02:51:03;10.50;;;9.20;;
10100;SDS011;5090;51.258;4.436;2022-08-25T02:53:32;9.70;;;8.63;;
10100;SDS011;5090;51.258;4.436;2022-08-25T02:55:59;10.82;;;8.30;;
10100;SDS011;5090;51.258;4.436;2022-08-25T02:58:28;12.82;;;9.82;;
10100;SDS011;5090;51.258;4.436;2022-08-25T03:00:56;10.48;;;9.40;;
10100;SDS011;5090;51.258;4.436;2022-08-25T03:03:24;11.82;;;9.00;;
10100;SDS011;5090;51.258;4.436;2022-08-25T03:05:52;10.48;;;9.18;;
10100;SDS011;5090;51.258;4.436;2022-08-25T03:08:20;11.12;;;9.93;;
10100;SDS011;5090;51.258;4.436;2022-08-25T03:10:49;10.45;;;9.35;;
10100;SDS011;5090;51.258;4.436;2022-08-25T03:13:17;10.82;;;9.00;;
10100;SDS011;5090;51.258;4.436;2022-08-25T03:15:45;10.80;;;9.65;;
10100;SDS011;5090;51.258;4.436;2022-08-25T03:18:13;11.82;;;9.18;;
10100;SDS011;5090;51.258;4.436;2022-08-25T03:20:41;10.15;;;8.27;;
10100;SDS011;5090;51.258;4.436;2022-08-25T03:23:09;13.65;;;9.73;;
10100;SDS011;5090;51.258;4.436;2022-08-25T03:25:38;20.50;;;10.15;;
10100;SDS011;5090;51.258;4.436;2022-08-25T03:28:12;17.80;;;10.32;;
10100;SDS011;5090;51.258;4.436;2022-08-25T03:30:40;14.20;;;9.45;;
10100;SDS011;5090;51.258;4.436;2022-08-25T03:33:09;13.93;;;9.52;;
10100;SDS011;5090;51.258;4.436;2022-08-25T03:35:36;15.38;;;9.45;;
10100;SDS011;5090;51.258;4.436;2022-08-25T03:38:04;15.85;;;9.70;;
10100;SDS011;5090;51.258;4.436;2022-08-25T03:40:33;14.80;;;9.65;;
10100;SDS011;5090;51.258;4.436;2022-08-25T03:43:01;17.17;;;9.80;;
10100;SDS011;5090;51.258;4.436;2022-08-25T03:45:29;15.65;;;9.35;;
10100;SDS011;5090;51.258;4.436;2022-08-25T03:47:57;12.63;;;9.18;;
10100;SDS011;5090;51.258;4.436;2022-08-25T03:50:25;14.25;;;9.50;;
10100;SDS011;5090;51.258;4.436;2022-08-25T03:52:54;11.93;;;8.73;;
10100;SDS011;5090;51.258;4.436;2022-08-25T03:55:23;11.73;;;8.48;;
10100;SDS011;5090;51.258;4.436;2022-08-25T03:57:51;15.43;;;9.05;;
10100;SDS011;5090;51.258;4.436;2022-08-25T04:00:19;12.70;;;8.63;;
10100;SDS011;5090;51.258;4.436;2022-08-25T04:02:47;16.62;;;8.35;;
10100;SDS011;5090;51.258;4.436;2022-08-25T04:05:15;12.05;;;8.05;;
10100;SDS011;5090;51.258;4.436;2022-08-25T04:07:43;9.70;;;7.68;;
10100;SDS011;5090;51.258;4.436;2022-08-25T04:10:11;9.95;;;8.80;;
10100;SDS011;5090;51.258;4.436;2022-08-25T04:12:39;12.35;;;7.37;;
10100;SDS011;5090;51.258;4.436;2022-08-25T04:15:08;11.95;;;6.97;;
10100;SDS011;5090;51.258;4.436;2022-08-25T04:17:37;10.05;;;6.55;;
10100;SDS011;5090;51.258;4.436;2022-08-25T04:20:05;7.12;;;6.03;;
10100;SDS011;5090;51.258;4.436;2022-08-25T04:22:33;15.40;;;6.87;;
10100;SDS011;5090;51.258;4.436;2022-08-25T04:25:01;13.48;;;6.55;;
10100;SDS011;5090;51.258;4.436;2022-08-25T04:27:30;10.63;;;5.85;;
10100;SDS011;5090;51.258;4.436;2022-08-25T04:29:58;12.48;;;6.28;;
10100;SDS011;5090;51.258;4.436;2022-08-25T04:32:26;8.70;;;6.05;;
10100;SDS011;5090;51.258;4.436;2022-08-25T04:34:54;9.10;;;6.35;;
10100;SDS011;5090;51.258;4.436;2022-08-25T04:37:23;9.38;;;5.62;;
10100;SDS011;5090;51.258;4.436;2022-08-25T04:39:51;8.82;;;5.35;;
10100;SDS011;5090;51.258;4.436;2022-08-25T04:42:19;5.53;;;4.95;;
10100;SDS011;5090;51.258;4.436;2022-08-25T04:44:47;7.45;;;4.95;;
10100;SDS011;5090;51.258;4.436;2022-08-25T04:47:15;7.37;;;5.40;;
10100;SDS011;5090;51.258;4.436;2022-08-25T04:49:44;12.85;;;4.78;;
10100;SDS011;5090;51.258;4.436;2022-08-25T04:52:12;7.93;;;4.68;;
10100;SDS011;5090;51.258;4.436;2022-08-25T04:54:40;6.93;;;4.43;;
10100;SDS011;5090;51.258;4.436;2022-08-25T04:57:08;7.28;;;5.28;;
10100;SDS011;5090;51.258;4.436;2022-08-25T04:59:37;9.88;;;4.97;;
10100;SDS011;5090;51.258;4.436;2022-08-25T05:02:05;7.60;;;4.95;;
10100;SDS011;5090;51.258;4.436;2022-08-25T05:04:34;8.25;;;5.12;;
10100;SDS011;5090;51.258;4.436;2022-08-25T05:07:01;8.20;;;5.00;;
10100;SDS011;5090;51.258;4.436;2022-08-25T05:09:29;8.30;;;4.72;;
10100;SDS011;5090;51.258;4.436;2022-08-25T05:11:58;10.73;;;4.90;;
10100;SDS011;5090;51.258;4.436;2022-08-25T05:14:26;7.10;;;4.53;;
10100;SDS011;5090;51.258;4.436;2022-08-25T05:16:55;7.70;;;4.80;;
10100;SDS011;5090;51.258;4.436;2022-08-25T05:19:22;7.95;;;4.32;;
10100;SDS011;5090;51.258;4.436;2022-08-25T05:21:50;8.82;;;4.40;;
10100;SDS011;5090;51.258;4.436;2022-08-25T05:24:19;7.97;;;4.53;;
10100;SDS011;5090;51.258;4.436;2022-08-25T05:26:47;11.02;;;4.50;;
10100;SDS011;5090;51.258;4.436;2022-08-25T05:29:15;5.53;;;4.00;;
10100;SDS011;5090;51.258;4.436;2022-08-25T05:31:43;7.20;;;3.80;;
10100;SDS011;5090;51.258;4.436;2022-08-25T05:34:11;9.05;;;3.90;;
10100;SDS011;5090;51.258;4.436;2022-08-25T05:36:39;7.78;;;3.78;;
10100;SDS011;5090;51.258;4.436;2022-08-25T05:39:08;6.75;;;3.92;;
10100;SDS011;5090;51.258;4.436;2022-08-25T05:41:36;6.03;;;4.10;;
10100;SDS011;5090;51.258;4.436;2022-08-25T05:44:04;12.68;;;4.57;;
10100;SDS011;5090;51.258;4.436;2022-08-25T05:46:33;13.75;;;4.70;;
10100;SDS011;5090;51.258;4.436;2022-08-25T05:49:01;7.60;;;4.10;;
10100;SDS011;5090;51.258;4.436;2022-08-25T05:51:29;8.40;;;4.22;;
10100;SDS011;5090;51.258;4.436;2022-08-25T05:53:57;8.30;;;4.37;;
10100;SDS011;5090;51.258;4.436;2022-08-25T05:56:26;14.15;;;4.05;;
10100;SDS011;5090;51.258;4.436;2022-08-25T05:58:54;20.17;;;4.47;;
10100;SDS011;5090;51.258;4.436;2022-08-25T06:01:24;7.80;;;3.75;;
10100;SDS011;5090;51.258;4.436;2022-08-25T06:03:57;11.88;;;4.10;;
10100;SDS011;5090;51.258;4.436;2022-08-25T06:06:25;8.73;;;3.67;;
10100;SDS011;5090;51.258;4.436;2022-08-25T06:08:53;4.55;;;3.55;;
10100;SDS011;5090;51.258;4.436;2022-08-25T06:11:21;15.32;;;4.32;;
10100;SDS011;5090;51.258;4.436;2022-08-25T06:13:50;14.65;;;4.53;;
10100;SDS011;5090;51.258;4.436;2022-08-25T06:16:18;10.57;;;4.12;;
10100;SDS011;5090;51.258;4.436;2022-08-25T06:18:46;11.40;;;3.60;;
10100;SDS011;5090;51.258;4.436;2022-08-25T06:21:15;10.93;;;4.05;;
10100;SDS011;5090;51.258;4.436;2022-08-25T06:23:43;11.68;;;3.72;;
10100;SDS011;5090;51.258;4.436;2022-08-25T06:26:12;15.50;;;3.70;;
10100;SDS011;5090;51.258;4.436;2022-08-25T06:28:40;12.20;;;4.43;;
10100;SDS011;5090;51.258;4.436;2022-08-25T06:31:08;15.05;;;5.40;;
10100;SDS011;5090;51.258;4.436;2022-08-25T06:33:36;14.40;;;4.18;;
10100;SDS011;5090;51.258;4.436;2022-08-25T06:36:05;14.95;;;4.10;;
10100;SDS011;5090;51.258;4.436;2022-08-25T06:38:33;16.73;;;4.93;;
10100;SDS011;5090;51.258;4.436;2022-08-25T06:41:02;17.83;;;4.25;;
10100;SDS011;5090;51.258;4.436;2022-08-25T06:43:29;19.52;;;3.95;;
10100;SDS011;5090;51.258;4.436;2022-08-25T06:46:14;14.27;;;3.85;;
10100;SDS011;5090;51.258;4.436;2022-08-25T06:48:41;13.32;;;3.45;;
10100;SDS011;5090;51.258;4.436;2022-08-25T06:51:11;11.20;;;3.37;;
10100;SDS011;5090;51.258;4.436;2022-08-25T06:53:38;7.12;;;3.35;;
10100;SDS011;5090;51.258;4.436;2022-08-25T06:56:06;13.25;;;3.85;;
10100;SDS011;5090;51.258;4.436;2022-08-25T06:58:35;8.55;;;2.97;;
10100;SDS011;5090;51.258;4.436;2022-08-25T07:01:05;12.90;;;2.97;;
10100;SDS011;5090;51.258;4.436;2022-08-25T07:03:33;5.45;;;3.22;;
10100;SDS011;5090;51.258;4.436;2022-08-25T07:06:01;16.12;;;3.35;;
10100;SDS011;5090;51.258;4.436;2022-08-25T07:08:29;7.28;;;3.53;;
10100;SDS011;5090;51.258;4.436;2022-08-25T07:10:57;13.15;;;3.22;;
10100;SDS011;5090;51.258;4.436;2022-08-25T07:13:25;11.27;;;3.40;;
10100;SDS011;5090;51.258;4.436;2022-08-25T07:15:54;9.70;;;3.47;;
10100;SDS011;5090;51.258;4.436;2022-08-25T07:18:22;12.07;;;3.70;;
10100;SDS011;5090;51.258;4.436;2022-08-25T07:20:50;8.45;;;3.10;;
10100;SDS011;5090;51.258;4.436;2022-08-25T07:23:19;11.93;;;3.45;;
10100;SDS011;5090;51.258;4.436;2022-08-25T07:25:46;9.90;;;2.70;;
10100;SDS011;5090;51.258;4.436;2022-08-25T07:28:15;7.80;;;2.62;;
10100;SDS011;5090;51.258;4.436;2022-08-25T07:30:43;10.27;;;3.05;;
10100;SDS011;5090;51.258;4.436;2022-08-25T07:33:12;11.18;;;3.12;;
10100;SDS011;5090;51.258;4.436;2022-08-25T07:35:40;8.65;;;3.17;;
10100;SDS011;5090;51.258;4.436;2022-08-25T07:38:08;6.65;;;2.80;;
10100;SDS011;5090;51.258;4.436;2022-08-25T07:40:37;6.05;;;2.92;;
10100;SDS011;5090;51.258;4.436;2022-08-25T07:43:05;8.98;;;2.85;;
10100;SDS011;5090;51.258;4.436;2022-08-25T07:45:36;9.50;;;2.85;;
10100;SDS011;5090;51.258;4.436;2022-08-25T07:48:05;8.85;;;3.50;;
10100;SDS011;5090;51.258;4.436;2022-08-25T07:50:32;9.90;;;2.90;;
10100;SDS011;5090;51.258;4.436;2022-08-25T07:53:00;3.80;;;3.42;;
10100;SDS011;5090;51.258;4.436;2022-08-25T07:55:29;6.65;;;2.45;;
10100;SDS011;5090;51.258;4.436;2022-08-25T07:57:57;7.12;;;2.90;;
10100;SDS011;5090;51.258;4.436;2022-08-25T08:00:25;7.62;;;2.92;;
10100;SDS011;5090;51.258;4.436;2022-08-25T08:02:55;9.00;;;3.20;;
10100;SDS011;5090;51.258;4.436;2022-08-25T08:05:23;15.25;;;3.00;;
10100;SDS011;5090;51.258;4.436;2022-08-25T08:07:51;6.93;;;2.78;;
10100;SDS011;5090;51.258;4.436;2022-08-25T08:10:19;5.20;;;3.05;;
10100;SDS011;5090;51.258;4.436;2022-08-25T08:12:47;10.98;;;3.35;;
10100;SDS011;5090;51.258;4.436;2022-08-25T08:15:15;11.43;;;3.28;;
10100;SDS011;5090;51.258;4.436;2022-08-25T08:17:43;8.18;;;3.20;;
10100;SDS011;5090;51.258;4.436;2022-08-25T08:20:12;5.97;;;3.53;;
10100;SDS011;5090;51.258;4.436;2022-08-25T08:22:40;8.68;;;3.12;;
10100;SDS011;5090;51.258;4.436;2022-08-25T08:25:08;6.82;;;3.28;;
10100;SDS011;5090;51.258;4.436;2022-08-25T08:27:36;11.77;;;2.58;;
10100;SDS011;5090;51.258;4.436;2022-08-25T08:30:05;8.57;;;2.60;;
10100;SDS011;5090;51.258;4.436;2022-08-25T08:32:38;11.00;;;2.72;;
10100;SDS011;5090;51.258;4.436;2022-08-25T08:35:06;10.50;;;2.80;;
10100;SDS011;5090;51.258;4.436;2022-08-25T08:37:34;10.27;;;2.72;;
10100;SDS011;5090;51.258;4.436;2022-08-25T08:40:04;9.63;;;2.67;;
10100;SDS011;5090;51.258;4.436;2022-08-25T08:45:24;9.23;;;2.65;;
10100;SDS011;5090;51.258;4.436;2022-08-25T08:47:56;9.45;;;2.47;;
10100;SDS011;5090;51.258;4.436;2022-08-25T08:53:01;7.28;;;2.60;;
10100;SDS011;5090;51.258;4.436;2022-08-25T08:55:27;7.03;;;2.45;;
10100;SDS011;5090;51.258;4.436;2022-08-25T08:57:55;8.25;;;2.78;;
10100;SDS011;5090;51.258;4.436;2022-08-25T09:00:23;5.85;;;2.78;;
10100;SDS011;5090;51.258;4.436;2022-08-25T09:03:03;9.85;;;2.47;;
10100;SDS011;5090;51.258;4.436;2022-08-25T09:05:35;10.93;;;2.90;;
10100;SDS011;5090;51.258;4.436;2022-08-25T09:08:03;9.13;;;2.67;;
10100;SDS011;5090;51.258;4.436;2022-08-25T09:10:33;15.73;;;3.47;;
10100;SDS011;5090;51.258;4.436;2022-08-25T09:13:07;12.80;;;2.85;;
10100;SDS011;5090;51.258;4.436;2022-08-25T09:15:40;11.10;;;3.03;;
10100;SDS011;5090;51.258;4.436;2022-08-25T09:18:17;8.90;;;2.80;;
10100;SDS011;5090;51.258;4.436;2022-08-25T09:20:46;12.85;;;2.95;;
10100;SDS011;5090;51.258;4.436;2022-08-25T09:23:14;7.62;;;2.42;;
10100;SDS011;5090;51.258;4.436;2022-08-25T09:26:16;12.63;;;2.40;;
10100;SDS011;5090;51.258;4.436;2022-08-25T09:28:27;6.40;;;2.22;;
10100;SDS011;5090;51.258;4.436;2022-08-25T09:30:56;13.70;;;2.85;;
10100;SDS011;5090;51.258;4.436;2022-08-25T09:33:24;9.80;;;2.55;;
10100;SDS011;5090;51.258;4.436;2022-08-25T09:35:52;14.65;;;2.90;;
10100;SDS011;5090;51.258;4.436;2022-08-25T09:38:20;6.87;;;2.10;;
10100;SDS011;5090;51.258;4.436;2022-08-25T09:40:50;14.85;;;2.55;;
10100;SDS011;5090;51.258;4.436;2022-08-25T09:43:20;7.30;;;2.65;;
10100;SDS011;5090;51.258;4.436;2022-08-25T09:45:49;11.10;;;2.72;;
10100;SDS011;5090;51.258;4.436;2022-08-25T09:48:23;9.65;;;2.17;;
10100;SDS011;5090;51.258;4.436;2022-08-25T09:50:51;7.32;;;2.60;;
10100;SDS011;5090;51.258;4.436;2022-08-25T09:53:19;9.70;;;2.30;;
10100;SDS011;5090;51.258;4.436;2022-08-25T09:55:51;7.10;;;2.25;;
10100;SDS011;5090;51.258;4.436;2022-08-25T09:58:18;7.57;;;2.10;;
10100;SDS011;5090;51.258;4.436;2022-08-25T10:00:45;12.02;;;2.28;;
10100;SDS011;5090;51.258;4.436;2022-08-25T10:03:18;3.55;;;2.10;;
10100;SDS011;5090;51.258;4.436;2022-08-25T10:06:01;5.30;;;2.00;;
10100;SDS011;5090;51.258;4.436;2022-08-25T10:08:32;8.07;;;1.92;;
10100;SDS011;5090;51.258;4.436;2022-08-25T10:10:59;8.45;;;2.30;;
10100;SDS011;5090;51.258;4.436;2022-08-25T10:13:33;7.35;;;2.42;;
10100;SDS011;5090;51.258;4.436;2022-08-25T10:16:03;2.92;;;1.67;;
10100;SDS011;5090;51.258;4.436;2022-08-25T10:18:29;9.07;;;2.30;;
10100;SDS011;5090;51.258;4.436;2022-08-25T10:21:02;6.60;;;2.25;;
10100;SDS011;5090;51.258;4.436;2022-08-25T10:23:30;5.53;;;1.85;;
10100;SDS011;5090;51.258;4.436;2022-08-25T10:25:59;3.10;;;1.92;;
10100;SDS011;5090;51.258;4.436;2022-08-25T10:28:30;7.12;;;1.80;;
10100;SDS011;5090;51.258;4.436;2022-08-25T10:33:47;6.57;;;1.95;;
10100;SDS011;5090;51.258;4.436;2022-08-25T10:36:13;3.65;;;2.28;;
10100;SDS011;5090;51.258;4.436;2022-08-25T10:38:41;10.13;;;2.70;;
10100;SDS011;5090;51.258;4.436;2022-08-25T10:41:13;6.30;;;1.83;;
10100;SDS011;5090;51.258;4.436;2022-08-25T10:46:32;1.80;;;1.40;;
10100;SDS011;5090;51.258;4.436;2022-08-25T10:49:04;4.37;;;1.90;;
10100;SDS011;5090;51.258;4.436;2022-08-25T10:51:36;7.22;;;1.80;;
10100;SDS011;5090;51.258;4.436;2022-08-25T10:56:45;6.93;;;1.67;;
10100;SDS011;5090;51.258;4.436;2022-08-25T10:59:18;2.58;;;1.62;;
10100;SDS011;5090;51.258;4.436;2022-08-25T11:07:03;5.75;;;1.80;;
10100;SDS011;5090;51.258;4.436;2022-08-25T11:09:33;4.45;;;1.90;;
10100;SDS011;5090;51.258;4.436;2022-08-25T11:12:02;4.87;;;1.45;;
10100;SDS011;5090;51.258;4.436;2022-08-25T11:14:32;4.37;;;1.80;;
10100;SDS011;5090;51.258;4.436;2022-08-25T11:17:16;4.32;;;1.62;;
10100;SDS011;5090;51.258;4.436;2022-08-25T11:19:44;4.70;;;1.33;;
10100;SDS011;5090;51.258;4.436;2022-08-25T11:22:18;5.53;;;1.65;;
10100;SDS011;5090;51.258;4.436;2022-08-25T11:24:54;6.62;;;1.92;;
10100;SDS011;5090;51.258;4.436;2022-08-25T11:27:23;6.75;;;1.70;;
10100;SDS011;5090;51.258;4.436;2022-08-25T11:29:54;4.10;;;1.60;;
10100;SDS011;5090;51.258;4.436;2022-08-25T11:32:19;4.97;;;2.10;;
10100;SDS011;5090;51.258;4.436;2022-08-25T11:34:47;3.75;;;1.67;;
10100;SDS011;5090;51.258;4.436;2022-08-25T11:37:20;5.32;;;1.40;;
10100;SDS011;5090;51.258;4.436;2022-08-25T11:42:28;6.32;;;1.67;;
10100;SDS011;5090;51.258;4.436;2022-08-25T11:47:31;2.83;;;1.52;;
10100;SDS011;5090;51.258;4.436;2022-08-25T11:49:57;9.82;;;2.10;;
10100;SDS011;5090;51.258;4.436;2022-08-25T11:52:40;3.65;;;1.20;;
10100;SDS011;5090;51.258;4.436;2022-08-25T11:55:12;4.10;;;1.42;;
10100;SDS011;5090;51.258;4.436;2022-08-25T11:57:39;2.78;;;1.17;;
10100;SDS011;5090;51.258;4.436;2022-08-25T12:00:10;2.50;;;1.45;;
10100;SDS011;5090;51.258;4.436;2022-08-25T12:02:43;1.48;;;1.10;;
10100;SDS011;5090;51.258;4.436;2022-08-25T12:07:58;3.03;;;1.40;;
10100;SDS011;5090;51.258;4.436;2022-08-25T12:11:03;4.22;;;1.48;;
10100;SDS011;5090;51.258;4.436;2022-08-25T12:13:46;6.72;;;1.50;;
10100;SDS011;5090;51.258;4.436;2022-08-25T12:15:57;4.03;;;1.50;;
10100;SDS011;5090;51.258;4.436;2022-08-25T12:21:09;5.55;;;1.62;;
10100;SDS011;5090;51.258;4.436;2022-08-25T12:23:38;6.15;;;1.42;;
10100;SDS011;5090;51.258;4.436;2022-08-25T12:26:15;2.87;;;1.52;;
10100;SDS011;5090;51.258;4.436;2022-08-25T12:28:46;6.32;;;1.75;;
10100;SDS011;5090;51.258;4.436;2022-08-25T12:31:15;3.58;;;1.50;;
10100;SDS011;5090;51.258;4.436;2022-08-25T12:33:53;3.58;;;1.50;;
10100;SDS011;5090;51.258;4.436;2022-08-25T12:36:25;3.80;;;1.70;;
10100;SDS011;5090;51.258;4.436;2022-08-25T12:38:52;7.25;;;2.00;;
10100;SDS011;5090;51.258;4.436;2022-08-25T12:41:22;3.37;;;1.52;;
10100;SDS011;5090;51.258;4.436;2022-08-25T12:43:49;2.83;;;1.30;;
10100;SDS011;5090;51.258;4.436;2022-08-25T12:49:35;1.75;;;1.27;;
10100;SDS011;5090;51.258;4.436;2022-08-25T12:51:49;2.35;;;1.20;;
10100;SDS011;5090;51.258;4.436;2022-08-25T12:54:16;4.05;;;1.40;;
10100;SDS011;5090;51.258;4.436;2022-08-25T12:56:44;5.43;;;1.30;;
10100;SDS011;5090;51.258;4.436;2022-08-25T12:59:15;7.10;;;2.25;;
10100;SDS011;5090;51.258;4.436;2022-08-25T13:05:29;7.90;;;2.50;;
10100;SDS011;5090;51.258;4.436;2022-08-25T13:07:08;1.48;;;1.33;;
10100;SDS011;5090;51.258;4.436;2022-08-25T13:12:21;2.15;;;1.65;;
10100;SDS011;5090;51.258;4.436;2022-08-25T13:14:52;5.18;;;1.58;;
10100;SDS011;5090;51.258;4.436;2022-08-25T13:17:24;4.25;;;1.50;;
10100;SDS011;5090;51.258;4.436;2022-08-25T13:19:51;4.78;;;2.70;;
10100;SDS011;5090;51.258;4.436;2022-08-25T13:22:19;5.40;;;3.00;;
10100;SDS011;5090;51.258;4.436;2022-08-25T13:24:48;13.88;;;4.25;;
10100;SDS011;5090;51.258;4.436;2022-08-25T13:27:19;11.12;;;3.20;;
10100;SDS011;5090;51.258;4.436;2022-08-25T13:29:50;9.77;;;3.55;;
10100;SDS011;5090;51.258;4.436;2022-08-25T13:32:17;13.02;;;5.20;;
10100;SDS011;5090;51.258;4.436;2022-08-25T13:34:44;14.63;;;5.85;;
10100;SDS011;5090;51.258;4.436;2022-08-25T13:37:15;15.23;;;5.60;;
10100;SDS011;5090;51.258;4.436;2022-08-25T13:39:48;12.85;;;5.50;;
10100;SDS011;5090;51.258;4.436;2022-08-25T13:42:16;15.98;;;4.75;;
10100;SDS011;5090;51.258;4.436;2022-08-25T13:44:44;9.02;;;5.57;;
10100;SDS011;5090;51.258;4.436;2022-08-25T13:47:14;13.45;;;6.68;;
10100;SDS011;5090;51.258;4.436;2022-08-25T13:49:42;16.17;;;7.65;;
10100;SDS011;5090;51.258;4.436;2022-08-25T13:52:25;14.52;;;6.78;;
10100;SDS011;5090;51.258;4.436;2022-08-25T13:54:56;15.52;;;6.25;;
10100;SDS011;5090;51.258;4.436;2022-08-25T13:57:21;12.10;;;6.03;;
10100;SDS011;5090;51.258;4.436;2022-08-25T13:59:49;13.77;;;6.30;;
10100;SDS011;5090;51.258;4.436;2022-08-25T14:02:37;14.05;;;6.97;;
10100;SDS011;5090;51.258;4.436;2022-08-25T14:04:46;13.50;;;5.75;;
10100;SDS011;5090;51.258;4.436;2022-08-25T14:07:25;9.35;;;5.70;;
10100;SDS011;5090;51.258;4.436;2022-08-25T14:09:57;10.07;;;4.47;;
10100;SDS011;5090;51.258;4.436;2022-08-25T14:12:31;10.88;;;4.70;;
10100;SDS011;5090;51.258;4.436;2022-08-25T14:14:58;11.80;;;4.50;;
10100;SDS011;5090;51.258;4.436;2022-08-25T14:17:25;12.30;;;4.80;;
10100;SDS011;5090;51.258;4.436;2022-08-25T14:19:53;8.90;;;4.50;;
10100;SDS011;5090;51.258;4.436;2022-08-25T14:22:22;13.80;;;5.87;;
10100;SDS011;5090;51.258;4.436;2022-08-25T14:24:50;9.65;;;5.53;;
10100;SDS011;5090;51.258;4.436;2022-08-25T14:27:18;8.20;;;4.62;;
10100;SDS011;5090;51.258;4.436;2022-08-25T14:29:46;9.13;;;4.53;;
10100;SDS011;5090;51.258;4.436;2022-08-25T14:32:15;10.63;;;5.32;;
10100;SDS011;5090;51.258;4.436;2022-08-25T14:34:43;10.88;;;5.22;;
10100;SDS011;5090;51.258;4.436;2022-08-25T14:37:13;9.48;;;4.82;;
10100;SDS011;5090;51.258;4.436;2022-08-25T14:39:39;16.87;;;5.47;;
10100;SDS011;5090;51.258;4.436;2022-08-25T14:42:08;9.35;;;4.60;;
10100;SDS011;5090;51.258;4.436;2022-08-25T14:44:36;12.68;;;4.37;;
10100;SDS011;5090;51.258;4.436;2022-08-25T14:47:04;6.72;;;5.00;;
10100;SDS011;5090;51.258;4.436;2022-08-25T14:49:34;11.85;;;5.28;;
10100;SDS011;5090;51.258;4.436;2022-08-25T14:52:03;7.45;;;4.72;;
10100;SDS011;5090;51.258;4.436;2022-08-25T14:54:29;13.20;;;5.90;;
10100;SDS011;5090;51.258;4.436;2022-08-25T14:56:58;14.40;;;5.53;;
10100;SDS011;5090;51.258;4.436;2022-08-25T14:59:26;9.20;;;4.65;;
10100;SDS011;5090;51.258;4.436;2022-08-25T15:01:54;18.30;;;5.78;;
10100;SDS011;5090;51.258;4.436;2022-08-25T15:04:24;10.60;;;5.03;;
10100;SDS011;5090;51.258;4.436;2022-08-25T15:06:53;8.32;;;5.03;;
10100;SDS011;5090;51.258;4.436;2022-08-25T15:09:19;12.18;;;6.87;;
10100;SDS011;5090;51.258;4.436;2022-08-25T15:11:49;14.32;;;5.65;;
10100;SDS011;5090;51.258;4.436;2022-08-25T15:14:17;9.90;;;6.95;;
10100;SDS011;5090;51.258;4.436;2022-08-25T15:16:46;11.65;;;7.65;;
10100;SDS011;5090;51.258;4.436;2022-08-25T15:19:14;12.77;;;6.75;;
10100;SDS011;5090;51.258;4.436;2022-08-25T15:21:43;13.95;;;7.28;;
10100;SDS011;5090;51.258;4.436;2022-08-25T15:24:11;14.17;;;8.40;;
10100;SDS011;5090;51.258;4.436;2022-08-25T15:26:41;17.48;;;9.00;;
10100;SDS011;5090;51.258;4.436;2022-08-25T15:29:08;11.68;;;8.43;;
10100;SDS011;5090;51.258;4.436;2022-08-25T15:31:36;13.18;;;10.95;;
10100;SDS011;5090;51.258;4.436;2022-08-25T15:34:05;12.20;;;10.95;;
10100;SDS011;5090;51.258;4.436;2022-08-25T15:36:32;15.02;;;8.73;;
10100;SDS011;5090;51.258;4.436;2022-08-25T15:39:01;20.52;;;12.27;;
10100;SDS011;5090;51.258;4.436;2022-08-25T15:41:29;18.65;;;14.57;;
10100;SDS011;5090;51.258;4.436;2022-08-25T15:43:57;25.23;;;19.08;;